createdAt,value
2022-11-05T00:00:41.356Z,25.42
2022-11-05T00:03:27.922Z,23.80
2022-11-05T00:06:13.910Z,25.08
2022-11-05T00:09:00.443Z,23.40
2022-11-05T00:11:46.584Z,23.85
2022-11-05T00:14:32.687Z,23.75
2022-11-05T00:17:00.067Z,22.10
2022-11-05T00:19:27.479Z,24.90
2022-11-05T00:22:13.481Z,26.98
2022-11-05T00:24:59.358Z,23.00
2022-11-05T00:27:26.804Z,24.00
2022-11-05T00:29:54.218Z,28.75
2022-11-05T00:32:23.517Z,23.63
2022-11-05T00:34:50.945Z,24.25
2022-11-05T00:37:18.324Z,22.40
2022-11-05T00:39:45.760Z,23.00
2022-11-05T00:42:31.624Z,22.02
2022-11-05T00:45:01.932Z,22.13
2022-11-05T00:47:49.050Z,27.52
2022-11-05T00:50:17.457Z,22.63
2022-11-05T00:52:57.010Z,21.88
2022-11-05T00:55:26.320Z,21.95
2022-11-05T00:57:54.056Z,22.52
2022-11-05T01:00:23.269Z,21.60
2022-11-05T01:02:50.797Z,20.70
2022-11-05T01:05:18.398Z,19.35
2022-11-05T01:07:45.835Z,17.45
2022-11-05T01:10:13.457Z,17.73
2022-11-05T01:12:40.858Z,16.50
2022-11-05T01:15:08.801Z,17.25
2022-11-05T01:17:36.258Z,17.95
2022-11-05T01:20:04.439Z,19.25
2022-11-05T01:22:31.811Z,18.90
2022-11-05T01:24:59.465Z,21.42
2022-11-05T01:27:26.977Z,16.55
2022-11-05T01:29:54.409Z,17.67
2022-11-05T01:32:22.075Z,17.67
2022-11-05T01:34:49.659Z,18.30
2022-11-05T01:37:17.187Z,17.98
2022-11-05T01:39:44.583Z,18.40
2022-11-05T01:42:15.800Z,17.02
2022-11-05T01:45:03.515Z,18.20
2022-11-05T01:47:44.820Z,17.23
2022-11-05T01:50:31.751Z,19.35
2022-11-05T01:53:25.238Z,17.50
2022-11-05T01:56:00.986Z,18.17
2022-11-05T01:58:34.069Z,18.35
2022-11-05T02:01:02.043Z,15.52
2022-11-05T02:03:29.722Z,16.85
2022-11-05T02:05:59.191Z,16.15
2022-11-05T02:08:57.748Z,18.45
2022-11-05T02:11:25.691Z,18.23
2022-11-05T02:13:53.099Z,16.92
2022-11-05T02:16:29.412Z,16.90
2022-11-05T02:19:07.525Z,16.48
2022-11-05T02:22:04.052Z,16.88
2022-11-05T02:24:59.442Z,16.90
2022-11-05T02:27:58.848Z,16.50
2022-11-05T02:30:32.228Z,18.42
2022-11-05T02:33:14.900Z,18.33
2022-11-05T02:35:54.511Z,18.25
2022-11-05T02:38:33.784Z,17.73
2022-11-05T02:41:30.642Z,16.98
2022-11-05T02:44:07.091Z,18.00
2022-11-05T02:46:47.611Z,17.77
2022-11-05T02:49:35.029Z,18.83
2022-11-05T02:52:06.917Z,19.77
2022-11-05T02:54:38.180Z,15.43
2022-11-05T02:57:05.672Z,17.08
2022-11-05T02:59:33.459Z,17.60
2022-11-05T03:02:02.904Z,18.30
2022-11-05T03:04:32.213Z,21.08
2022-11-05T03:07:26.395Z,20.35
2022-11-05T03:10:02.955Z,19.10
2022-11-05T03:12:59.636Z,18.85
2022-11-05T03:15:46.857Z,20.75
2022-11-05T03:18:26.595Z,21.73
2022-11-05T03:20:59.229Z,22.38
2022-11-05T03:23:52.899Z,21.38
2022-11-05T03:26:32.166Z,20.35
2022-11-05T03:29:02.812Z,21.38
2022-11-05T03:31:31.010Z,23.88
2022-11-05T03:33:59.726Z,22.42
2022-11-05T03:36:41.240Z,21.30
2022-11-05T03:39:12.235Z,20.40
2022-11-05T03:41:43.451Z,20.92
2022-11-05T03:44:13.189Z,20.50
2022-11-05T03:46:44.293Z,21.92
2022-11-05T03:49:17.571Z,19.02
2022-11-05T03:52:20.503Z,18.90
2022-11-05T03:57:21.467Z,19.75
2022-11-05T03:59:50.480Z,22.40
2022-11-05T04:02:24.078Z,21.50
2022-11-05T04:04:52.531Z,20.35
2022-11-05T04:07:39.036Z,19.63
2022-11-05T04:10:24.972Z,21.42
2022-11-05T04:13:11.234Z,22.85
2022-11-05T04:16:01.911Z,20.75
2022-11-05T04:18:29.431Z,20.83
2022-11-05T04:21:15.510Z,23.00
2022-11-05T04:24:01.405Z,22.83
2022-11-05T04:26:28.905Z,21.20
2022-11-05T04:29:14.905Z,21.08
2022-11-05T04:31:42.314Z,78.72
2022-11-05T04:34:09.719Z,58.97
2022-11-05T04:36:37.132Z,33.25
2022-11-05T04:39:04.597Z,26.63
2022-11-05T04:41:32.024Z,24.30
2022-11-05T04:43:59.416Z,27.75
2022-11-05T04:46:26.791Z,23.40
2022-11-05T04:48:54.319Z,22.15
2022-11-05T04:51:21.760Z,21.60
2022-11-05T04:53:49.185Z,21.55
2022-11-05T04:56:21.471Z,21.00
2022-11-05T04:58:48.999Z,21.20
2022-11-05T05:01:18.639Z,28.20
2022-11-05T05:03:50.639Z,26.58
2022-11-05T05:06:18.821Z,25.27
2022-11-05T05:08:50.418Z,28.23
2022-11-05T05:11:20.581Z,25.00
2022-11-05T05:13:48.763Z,22.77
2022-11-05T05:16:24.289Z,24.23
2022-11-05T05:18:52.301Z,25.00
2022-11-05T05:21:39.004Z,25.30
2022-11-05T05:24:09.593Z,23.23
2022-11-05T05:26:38.402Z,23.63
2022-11-05T05:29:06.811Z,22.70
2022-11-05T05:31:34.812Z,25.20
2022-11-05T05:34:02.363Z,22.17
2022-11-05T05:36:29.842Z,24.58
2022-11-05T05:38:57.300Z,22.13
2022-11-05T05:41:24.807Z,21.42
2022-11-05T05:43:52.206Z,21.80
2022-11-05T05:46:19.907Z,19.67
2022-11-05T05:48:51.493Z,19.98
2022-11-05T05:51:19.803Z,23.30
2022-11-05T05:53:47.286Z,22.27
2022-11-05T05:56:15.332Z,22.40
2022-11-05T05:58:42.745Z,25.23
2022-11-05T06:01:18.242Z,28.13
2022-11-05T06:03:46.210Z,19.73
2022-11-05T06:06:14.880Z,18.80
2022-11-05T06:08:42.687Z,17.58
2022-11-05T06:11:10.262Z,14.93
2022-11-05T06:13:37.769Z,12.23
2022-11-05T06:16:07.508Z,12.98
2022-11-05T06:18:35.318Z,12.80
2022-11-05T06:21:04.399Z,11.82
2022-11-05T06:23:32.630Z,13.98
2022-11-05T06:26:04.319Z,12.63
2022-11-05T06:28:31.890Z,14.73
2022-11-05T06:30:59.476Z,12.43
2022-11-05T06:33:27.146Z,9.13
2022-11-05T06:35:54.631Z,9.18
2022-11-05T06:38:22.265Z,10.00
2022-11-05T06:40:49.696Z,8.40
2022-11-05T06:43:17.111Z,8.95
2022-11-05T06:45:44.544Z,8.25
2022-11-05T06:48:12.002Z,6.88
2022-11-05T06:50:39.407Z,7.90
2022-11-05T06:53:06.799Z,7.90
2022-11-05T06:55:34.406Z,6.85
2022-11-05T06:58:02.005Z,8.15
2022-11-05T07:00:29.555Z,11.00
2022-11-05T07:03:04.183Z,8.02
2022-11-05T07:05:33.151Z,6.20
2022-11-05T07:08:00.616Z,5.65
2022-11-05T07:10:28.078Z,9.30
2022-11-05T07:12:55.617Z,10.95
2022-11-05T07:15:23.228Z,8.02
2022-11-05T07:17:50.731Z,5.25
2022-11-05T07:20:18.150Z,5.70
2022-11-05T07:22:45.572Z,4.28
2022-11-05T07:25:12.966Z,4.60
2022-11-05T07:27:40.456Z,7.05
2022-11-05T07:30:09.450Z,4.25
2022-11-05T07:32:38.575Z,4.45
2022-11-05T07:35:07.363Z,5.70
2022-11-05T07:37:48.518Z,3.72
2022-11-05T07:40:21.017Z,3.75
2022-11-05T07:42:56.791Z,3.15
2022-11-05T07:45:25.409Z,10.07
2022-11-05T07:47:57.829Z,10.27
2022-11-05T07:52:53.748Z,7.38
2022-11-05T07:55:21.213Z,5.30
2022-11-05T07:57:50.072Z,4.78
2022-11-05T08:00:21.697Z,6.63
2022-11-05T08:03:08.447Z,5.38
2022-11-05T08:05:38.244Z,4.45
2022-11-05T08:08:07.441Z,3.65
2022-11-05T08:10:35.556Z,6.97
2022-11-05T08:13:03.179Z,4.80
2022-11-05T08:15:30.735Z,4.57
2022-11-05T08:18:11.122Z,6.60
2022-11-05T08:20:39.205Z,5.85
2022-11-05T08:23:06.634Z,7.32
2022-11-05T08:25:34.323Z,7.60
2022-11-05T08:28:07.480Z,5.68
2022-11-05T08:30:35.424Z,5.60
2022-11-05T08:33:08.690Z,5.15
2022-11-05T08:35:37.345Z,4.03
2022-11-05T08:38:06.639Z,4.78
2022-11-05T08:40:35.400Z,5.65
2022-11-05T08:43:05.141Z,4.53
2022-11-05T08:45:33.580Z,5.35
2022-11-05T08:48:08.502Z,5.22
2022-11-05T08:50:37.109Z,9.73
2022-11-05T08:53:05.320Z,9.10
2022-11-05T08:55:32.813Z,6.65
2022-11-05T08:58:02.674Z,6.97
2022-11-05T09:00:32.568Z,5.75
2022-11-05T09:03:03.389Z,4.30
2022-11-05T09:05:31.756Z,5.47
2022-11-05T09:08:05.519Z,7.70
2022-11-05T09:10:35.653Z,8.55
2022-11-05T09:13:04.281Z,7.05
2022-11-05T09:15:32.293Z,8.13
2022-11-05T09:17:59.911Z,6.80
2022-11-05T09:20:27.602Z,6.63
2022-11-05T09:22:55.373Z,6.50
2022-11-05T09:25:22.999Z,6.50
2022-11-05T09:27:50.470Z,7.15
2022-11-05T09:30:17.922Z,7.10
2022-11-05T09:32:45.658Z,7.20
2022-11-05T09:35:13.016Z,6.82
2022-11-05T09:37:40.630Z,6.80
2022-11-05T09:40:08.410Z,6.57
2022-11-05T09:42:39.905Z,7.80
2022-11-05T09:45:15.839Z,13.83
2022-11-05T09:48:05.945Z,12.00
2022-11-05T09:50:37.080Z,13.50
2022-11-05T09:53:05.108Z,11.98
2022-11-05T09:55:37.002Z,11.63
2022-11-05T09:58:30.117Z,13.48
2022-11-05T10:00:58.279Z,13.18
2022-11-05T10:03:28.296Z,20.63
2022-11-05T10:06:07.648Z,17.20
2022-11-05T10:08:40.521Z,16.42
2022-11-05T10:11:13.923Z,14.43
2022-11-05T10:13:45.814Z,13.60
2022-11-05T10:16:35.526Z,13.50
2022-11-05T10:19:11.816Z,15.38
2022-11-05T10:22:04.997Z,15.90
2022-11-05T10:24:27.719Z,17.13
2022-11-05T10:26:55.743Z,16.02
2022-11-05T10:29:29.634Z,15.48
2022-11-05T10:32:01.809Z,17.65
2022-11-05T10:34:34.858Z,16.38
2022-11-05T10:37:02.729Z,16.25
2022-11-05T10:39:31.483Z,15.77
2022-11-05T10:42:23.478Z,16.17
2022-11-05T10:45:16.390Z,15.38
2022-11-05T10:47:53.069Z,18.08
2022-11-05T10:50:24.742Z,20.02
2022-11-05T10:52:52.250Z,17.75
2022-11-05T10:55:36.936Z,18.67
2022-11-05T10:58:18.259Z,18.63
2022-11-05T11:01:02.304Z,19.75
2022-11-05T11:03:39.018Z,18.40
2022-11-05T11:06:21.077Z,19.02
2022-11-05T11:08:49.941Z,17.08
2022-11-05T11:11:34.401Z,20.70
2022-11-05T11:14:14.151Z,20.05
2022-11-05T11:16:43.747Z,17.83
2022-11-05T11:19:20.455Z,18.25
2022-11-05T11:22:07.816Z,17.17
2022-11-05T11:24:41.016Z,18.30
2022-11-05T11:27:15.906Z,20.30
2022-11-05T11:29:49.395Z,19.60
2022-11-05T11:32:19.921Z,18.35
2022-11-05T11:34:51.046Z,18.88
2022-11-05T11:37:37.283Z,18.65
2022-11-05T11:40:13.149Z,20.10
2022-11-05T11:42:41.935Z,20.38
2022-11-05T11:45:18.160Z,18.17
2022-11-05T11:47:47.479Z,20.17
2022-11-05T11:50:41.257Z,17.77
2022-11-05T11:53:26.630Z,18.40
2022-11-05T11:56:09.592Z,16.90
2022-11-05T11:58:45.585Z,17.25
2022-11-05T12:01:18.206Z,16.50
2022-11-05T12:03:55.432Z,16.58
2022-11-05T12:06:29.346Z,21.02
2022-11-05T12:09:03.530Z,18.83
2022-11-05T12:11:47.955Z,21.60
2022-11-05T12:14:50.948Z,19.47
2022-11-05T12:17:18.338Z,18.35
2022-11-05T12:20:07.960Z,18.20
2022-11-05T12:22:50.548Z,17.17
2022-11-05T12:25:25.855Z,17.70
2022-11-05T12:28:10.408Z,19.55
2022-11-05T12:30:54.638Z,19.08
2022-11-05T12:34:02.486Z,18.73
2022-11-05T12:36:51.830Z,21.00
2022-11-05T12:39:22.210Z,19.10
2022-11-05T12:41:55.291Z,19.02
2022-11-05T12:44:22.787Z,20.45
2022-11-05T12:47:12.146Z,20.02
2022-11-05T12:49:46.484Z,19.05
2022-11-05T12:52:19.935Z,18.88
2022-11-05T12:55:09.559Z,19.15
2022-11-05T12:57:41.036Z,18.33
2022-11-05T13:00:18.992Z,20.20
2022-11-05T13:02:46.423Z,17.33
2022-11-05T13:05:18.266Z,16.63
2022-11-05T13:08:12.317Z,14.68
2022-11-05T13:10:44.511Z,16.13
2022-11-05T13:13:17.706Z,15.38
2022-11-05T13:15:52.206Z,16.73
2022-11-05T13:18:28.369Z,15.85
2022-11-05T13:20:56.610Z,15.57
2022-11-05T13:23:35.759Z,17.55
2022-11-05T13:26:07.982Z,18.13
2022-11-05T13:28:46.904Z,15.70
2022-11-05T13:31:18.988Z,17.33
2022-11-05T13:33:48.583Z,16.80
2022-11-05T13:36:44.780Z,16.65
2022-11-05T13:39:29.615Z,15.60
2022-11-05T13:42:28.046Z,15.65
2022-11-05T13:45:10.690Z,15.05
2022-11-05T13:47:47.284Z,17.63
2022-11-05T13:50:23.753Z,16.10
2022-11-05T13:53:14.413Z,16.77
2022-11-05T13:56:19.464Z,15.02
2022-11-05T13:59:10.092Z,16.58
2022-11-05T14:01:46.865Z,17.05
2022-11-05T14:04:36.089Z,16.65
2022-11-05T14:07:31.053Z,15.80
2022-11-05T14:10:06.137Z,15.30
2022-11-05T14:12:36.811Z,13.90
2022-11-05T14:15:20.707Z,12.63
2022-11-05T14:18:00.488Z,13.02
2022-11-05T14:20:30.687Z,11.35
2022-11-05T14:23:37.589Z,12.15
2022-11-05T14:26:20.326Z,11.27
2022-11-05T14:29:11.802Z,11.80
2022-11-05T14:34:44.691Z,13.25
2022-11-05T14:37:12.607Z,13.27
2022-11-05T14:39:40.539Z,12.07
2022-11-05T14:42:24.744Z,11.15
2022-11-05T14:45:13.562Z,12.98
2022-11-05T14:47:44.229Z,11.63
2022-11-05T14:50:18.606Z,11.82
2022-11-05T14:52:54.668Z,10.70
2022-11-05T14:55:26.972Z,11.30
2022-11-05T15:00:36.738Z,12.68
2022-11-05T15:03:29.967Z,12.55
2022-11-05T15:06:08.271Z,12.88
2022-11-05T15:08:56.364Z,13.02
2022-11-05T15:11:29.236Z,13.88
2022-11-05T15:13:56.743Z,12.40
2022-11-05T15:16:46.114Z,11.88
2022-11-05T15:19:25.069Z,12.85
2022-11-05T15:21:54.743Z,12.95
2022-11-05T15:24:22.912Z,13.45
2022-11-05T15:27:07.651Z,14.20
2022-11-05T15:29:35.556Z,12.65
2022-11-05T15:32:03.327Z,12.65
2022-11-05T15:34:33.345Z,13.40
2022-11-05T15:37:09.932Z,13.75
2022-11-05T15:39:43.058Z,11.85
2022-11-05T15:42:16.283Z,13.48
2022-11-05T15:44:49.229Z,12.68
2022-11-05T15:47:25.271Z,12.63
2022-11-05T15:49:57.253Z,13.77
2022-11-05T15:52:33.525Z,12.57
2022-11-05T15:55:13.352Z,11.98
2022-11-05T15:57:51.198Z,12.70
2022-11-05T16:00:25.709Z,12.00
2022-11-05T16:02:57.624Z,13.82
2022-11-05T16:05:31.837Z,12.00
2022-11-05T16:08:00.417Z,11.45
2022-11-05T16:10:33.988Z,11.85
2022-11-05T16:13:37.399Z,11.40
2022-11-05T16:16:14.234Z,12.25
2022-11-05T16:18:42.900Z,13.35
2022-11-05T16:21:17.951Z,12.13
2022-11-05T16:23:48.549Z,11.50
2022-11-05T16:29:34.628Z,11.60
2022-11-05T16:32:06.094Z,11.80
2022-11-05T16:34:36.576Z,13.80
2022-11-05T16:38:16.384Z,12.45
2022-11-05T16:40:55.001Z,11.82
2022-11-05T16:43:57.838Z,12.65
2022-11-05T16:49:33.885Z,11.80
2022-11-05T16:52:01.375Z,12.48
2022-11-05T16:54:28.708Z,12.85
2022-11-05T16:56:56.241Z,12.98
2022-11-05T16:59:23.635Z,12.07
2022-11-05T17:01:55.592Z,12.45
2022-11-05T17:04:23.454Z,12.82
2022-11-05T17:06:51.048Z,12.18
2022-11-05T17:09:18.498Z,14.02
2022-11-05T17:11:45.929Z,13.85
2022-11-05T17:14:14.329Z,14.00
2022-11-05T17:16:41.998Z,12.77
2022-11-05T17:19:17.426Z,14.77
2022-11-05T17:21:45.624Z,14.68
2022-11-05T17:24:13.571Z,14.23
2022-11-05T17:26:41.591Z,14.60
2022-11-05T17:29:09.626Z,14.23
2022-11-05T17:31:40.692Z,12.75
2022-11-05T17:34:09.872Z,12.63
2022-11-05T17:36:37.666Z,13.70
2022-11-05T17:39:05.394Z,13.93
2022-11-05T17:41:33.315Z,13.88
2022-11-05T17:44:01.278Z,12.80
2022-11-05T17:46:28.980Z,12.48
2022-11-05T17:48:57.276Z,12.82
2022-11-05T17:51:25.026Z,13.82
2022-11-05T17:53:53.017Z,13.60
2022-11-05T17:56:32.561Z,13.43
2022-11-05T17:59:02.839Z,12.85
2022-11-05T18:01:33.062Z,13.13
2022-11-05T18:04:07.204Z,11.48
2022-11-05T18:06:40.976Z,12.98
2022-11-05T18:09:09.962Z,13.80
2022-11-05T18:11:40.536Z,13.55
2022-11-05T18:14:08.654Z,12.55
2022-11-05T18:16:36.892Z,12.43
2022-11-05T18:19:05.184Z,14.80
2022-11-05T18:21:33.188Z,12.77
2022-11-05T18:24:05.819Z,11.60
2022-11-05T18:26:34.598Z,12.02
2022-11-05T18:29:05.055Z,12.10
2022-11-05T18:31:32.832Z,12.40
2022-11-05T18:34:01.021Z,11.45
2022-11-05T18:36:30.685Z,11.23
2022-11-05T18:39:00.646Z,12.10
2022-11-05T18:41:28.504Z,11.90
2022-11-05T18:44:00.709Z,10.90
2022-11-05T18:46:56.509Z,11.30
2022-11-05T18:49:17.538Z,11.65
2022-11-05T18:51:45.374Z,11.10
2022-11-05T18:54:13.179Z,11.25
2022-11-05T18:56:45.509Z,10.32
2022-11-05T18:59:35.784Z,10.73
2022-11-05T19:02:03.306Z,10.60
2022-11-05T19:04:31.205Z,11.75
2022-11-05T19:07:04.368Z,11.88
2022-11-05T19:09:37.849Z,10.45
2022-11-05T19:12:07.211Z,10.90
2022-11-05T19:14:35.569Z,12.50
2022-11-05T19:17:04.403Z,10.98
2022-11-05T19:19:32.420Z,10.80
2022-11-05T19:22:00.154Z,11.55
2022-11-05T19:24:27.983Z,11.63
2022-11-05T19:26:56.002Z,11.27
2022-11-05T19:29:23.952Z,12.90
2022-11-05T19:31:51.766Z,12.50
2022-11-05T19:34:20.782Z,13.40
2022-11-05T19:36:48.464Z,13.02
2022-11-05T19:39:16.129Z,14.20
2022-11-05T19:41:44.021Z,13.07
2022-11-05T19:44:11.900Z,13.70
2022-11-05T19:46:39.743Z,11.70
2022-11-05T19:49:07.310Z,12.80
2022-11-05T19:51:35.312Z,14.05
2022-11-05T19:54:04.128Z,10.88
2022-11-05T19:56:33.887Z,13.80
2022-11-05T19:59:03.432Z,11.63
2022-11-05T20:01:31.666Z,12.63
2022-11-05T20:04:02.560Z,12.43
2022-11-05T20:06:33.572Z,13.13
2022-11-05T20:09:21.005Z,14.52
2022-11-05T20:11:50.151Z,12.55
2022-11-05T20:14:18.069Z,12.00
2022-11-05T20:16:46.897Z,12.10
2022-11-05T20:19:17.647Z,11.90
2022-11-05T20:21:45.920Z,11.65
2022-11-05T20:24:20.561Z,11.02
2022-11-05T20:26:52.776Z,11.98
2022-11-05T20:29:21.301Z,10.40
2022-11-05T20:31:49.757Z,11.52
2022-11-05T20:34:17.527Z,12.13
2022-11-05T20:36:45.442Z,12.95
2022-11-05T20:39:13.322Z,12.82
2022-11-05T20:41:41.288Z,15.13
2022-11-05T20:44:09.192Z,14.00
2022-11-05T20:46:37.133Z,13.07
2022-11-05T20:49:05.043Z,16.30
2022-11-05T20:51:32.735Z,14.50
2022-11-05T20:54:01.371Z,15.68
2022-11-05T20:56:31.490Z,14.43
2022-11-05T20:59:00.600Z,13.07
2022-11-05T21:01:31.250Z,14.57
2022-11-05T21:04:00.020Z,13.82
2022-11-05T21:06:28.085Z,12.38
2022-11-05T21:08:56.209Z,10.75
2022-11-05T21:11:24.170Z,10.60
2022-11-05T21:13:52.199Z,10.75
2022-11-05T21:16:20.695Z,10.45
2022-11-05T21:18:48.824Z,11.20
2022-11-05T21:21:19.359Z,10.57
2022-11-05T21:23:47.873Z,10.15
2022-11-05T21:26:17.856Z,10.70
2022-11-05T21:28:46.052Z,9.80
2022-11-05T21:31:14.079Z,12.43
2022-11-05T21:33:42.354Z,10.43
2022-11-05T21:36:12.552Z,12.73
2022-11-05T21:38:43.611Z,13.52
2022-11-05T21:41:12.781Z,13.68
2022-11-05T21:43:41.834Z,13.52
2022-11-05T21:46:11.576Z,12.65
2022-11-05T21:48:39.986Z,10.75
2022-11-05T21:51:26.053Z,9.65
2022-11-05T21:54:12.302Z,9.20
2022-11-05T21:56:59.219Z,9.55
2022-11-05T21:59:45.337Z,9.95
2022-11-05T22:02:15.341Z,9.35
2022-11-05T22:04:48.980Z,10.05
2022-11-05T22:07:18.957Z,9.27
2022-11-05T22:09:46.867Z,9.13
2022-11-05T22:12:15.229Z,9.63
2022-11-05T22:14:42.929Z,9.07
2022-11-05T22:17:10.933Z,8.63
2022-11-05T22:19:38.839Z,8.55
2022-11-05T22:22:07.043Z,8.57
2022-11-05T22:24:35.729Z,7.85
2022-11-05T22:27:08.635Z,9.15
2022-11-05T22:29:37.254Z,8.32
2022-11-05T22:32:05.519Z,7.95
2022-11-05T22:34:33.398Z,8.93
2022-11-05T22:37:01.098Z,7.68
2022-11-05T22:39:28.890Z,8.15
2022-11-05T22:41:57.691Z,8.00
2022-11-05T22:44:26.591Z,7.60
2022-11-05T22:46:54.690Z,7.53
2022-11-05T22:49:22.258Z,8.55
2022-11-05T22:51:49.687Z,8.13
2022-11-05T22:54:17.615Z,12.88
2022-11-05T22:56:45.235Z,10.00
2022-11-05T22:59:15.278Z,13.38
2022-11-05T23:01:44.538Z,13.68
2022-11-05T23:04:13.278Z,13.85
2022-11-05T23:06:59.870Z,12.77
2022-11-05T23:09:48.871Z,9.48
2022-11-05T23:12:29.697Z,9.23
2022-11-05T23:14:58.858Z,7.25
2022-11-05T23:17:45.351Z,7.55
2022-11-05T23:20:40.058Z,7.90
2022-11-05T23:23:30.203Z,6.68
2022-11-05T23:25:58.803Z,8.10
2022-11-05T23:28:26.629Z,7.20
2022-11-05T23:31:12.615Z,7.43
2022-11-05T23:33:40.146Z,10.43
2022-11-05T23:36:31.073Z,9.35
2022-11-05T23:38:58.448Z,10.32
2022-11-05T23:41:44.287Z,11.25
2022-11-05T23:44:30.279Z,10.52
2022-11-05T23:47:16.195Z,10.75
2022-11-05T23:49:43.749Z,10.80
2022-11-05T23:52:11.178Z,11.30
2022-11-05T23:54:38.609Z,10.63
2022-11-05T23:57:05.989Z,11.63
2022-11-05T23:59:33.429Z,10.00
